createdAt,value
2023-01-05T00:02:37.428Z,9.80
2023-01-05T00:05:11.223Z,9.80
2023-01-05T00:07:44.245Z,9.80
2023-01-05T00:10:30.838Z,9.80
2023-01-05T00:13:23.293Z,9.80
2023-01-05T00:16:08.796Z,9.80
2023-01-05T00:19:00.254Z,9.70
2023-01-05T00:21:45.878Z,9.70
2023-01-05T00:24:19.282Z,9.70
2023-01-05T00:26:45.891Z,9.70
2023-01-05T00:29:12.534Z,9.70
2023-01-05T00:31:45.426Z,9.70
2023-01-05T00:34:12.085Z,9.70
2023-01-05T00:36:40.743Z,9.70
2023-01-05T00:39:14.250Z,9.80
2023-01-05T00:41:40.930Z,9.80
2023-01-05T00:44:14.214Z,9.70
2023-01-05T00:46:40.819Z,9.80
2023-01-05T00:49:14.225Z,9.80
2023-01-05T00:51:40.867Z,9.80
2023-01-05T00:54:14.306Z,9.80
2023-01-05T00:56:40.928Z,9.80
2023-01-05T00:59:21.249Z,9.80
2023-01-05T01:01:55.193Z,9.80
2023-01-05T01:04:29.282Z,9.80
2023-01-05T01:06:55.921Z,9.80
2023-01-05T01:09:29.218Z,9.90
2023-01-05T01:11:56.180Z,9.90
2023-01-05T01:14:30.288Z,9.80
2023-01-05T01:16:56.988Z,9.90
2023-01-05T01:19:33.242Z,9.90
2023-01-05T01:22:08.280Z,9.90
2023-01-05T01:24:41.260Z,9.90
2023-01-05T01:27:14.287Z,9.90
2023-01-05T01:29:40.906Z,9.90
2023-01-05T01:32:14.358Z,10.00
2023-01-05T01:34:40.962Z,10.00
2023-01-05T01:37:14.315Z,10.00
2023-01-05T01:39:40.910Z,10.00
2023-01-05T01:42:20.298Z,10.10
2023-01-05T01:44:53.161Z,10.10
2023-01-05T01:47:49.296Z,10.10
2023-01-05T01:50:29.128Z,10.00
2023-01-05T01:53:08.235Z,10.00
2023-01-05T01:55:43.296Z,10.00
2023-01-05T01:58:19.254Z,10.00
2023-01-05T02:00:59.386Z,10.00
2023-01-05T02:03:32.321Z,10.00
2023-01-05T02:05:59.951Z,9.90
2023-01-05T02:08:38.295Z,9.90
2023-01-05T02:11:35.572Z,9.90
2023-01-05T02:14:34.219Z,10.00
2023-01-05T02:17:16.673Z,9.90
2023-01-05T02:20:01.321Z,10.00
2023-01-05T02:23:05.307Z,9.90
2023-01-05T02:26:10.787Z,10.00
2023-01-05T02:29:09.307Z,10.00
2023-01-05T02:31:47.240Z,10.00
2023-01-05T02:34:39.213Z,10.00
2023-01-05T02:37:12.249Z,10.00
2023-01-05T02:39:50.707Z,10.00
2023-01-05T02:42:30.249Z,10.00
2023-01-05T02:44:56.884Z,10.00
2023-01-05T02:47:36.278Z,10.10
2023-01-05T02:50:14.283Z,10.10
2023-01-05T02:53:13.290Z,10.10
2023-01-05T02:56:10.243Z,10.10
2023-01-05T02:58:50.301Z,10.10
2023-01-05T03:01:39.499Z,10.10
2023-01-05T03:04:37.295Z,10.10
2023-01-05T03:07:08.629Z,10.10
2023-01-05T03:09:46.268Z,10.20
2023-01-05T03:12:44.108Z,10.20
2023-01-05T03:15:39.268Z,10.20
2023-01-05T03:18:12.311Z,10.20
2023-01-05T03:20:54.321Z,10.30
2023-01-05T03:23:40.778Z,10.20
2023-01-05T03:26:38.253Z,10.20
2023-01-05T03:29:36.283Z,10.20
2023-01-05T03:32:31.677Z,10.10
2023-01-05T03:35:30.225Z,10.10
2023-01-05T03:38:28.083Z,10.10
2023-01-05T03:41:04.282Z,10.10
2023-01-05T03:43:42.234Z,10.20
2023-01-05T03:46:11.745Z,10.20
2023-01-05T03:48:38.431Z,10.20
2023-01-05T03:51:12.234Z,10.10
2023-01-05T03:53:38.860Z,10.10
2023-01-05T03:56:12.391Z,10.10
2023-01-05T03:58:59.215Z,10.20
2023-01-05T04:01:32.319Z,10.20
2023-01-05T04:03:59.090Z,10.20
2023-01-05T04:06:32.259Z,10.20
2023-01-05T04:08:58.890Z,10.20
2023-01-05T04:11:32.287Z,10.20
2023-01-05T04:13:58.925Z,10.20
2023-01-05T04:16:25.755Z,10.10
2023-01-05T04:18:59.212Z,10.10
2023-01-05T04:21:25.822Z,10.10
2023-01-05T04:24:06.348Z,10.10
2023-01-05T04:26:32.946Z,10.00
2023-01-05T04:29:06.278Z,9.90
2023-01-05T04:31:39.288Z,9.90
2023-01-05T04:34:12.282Z,9.80
2023-01-05T04:36:38.900Z,9.80
2023-01-05T04:39:12.277Z,9.70
2023-01-05T04:41:45.274Z,9.80
2023-01-05T04:44:11.866Z,9.80
2023-01-05T04:46:45.328Z,9.80
2023-01-05T04:49:12.257Z,9.80
2023-01-05T04:51:38.861Z,9.80
2023-01-05T04:54:12.237Z,9.90
2023-01-05T04:56:45.274Z,9.80
2023-01-05T04:59:25.227Z,9.80
2023-01-05T05:01:51.914Z,9.70
2023-01-05T05:04:25.200Z,9.60
2023-01-05T05:06:51.825Z,9.60
2023-01-05T05:09:25.297Z,9.50
2023-01-05T05:11:51.914Z,9.50
2023-01-05T05:14:18.520Z,9.50
2023-01-05T05:16:51.298Z,9.50
2023-01-05T05:19:17.893Z,9.50
2023-01-05T05:21:44.509Z,9.50
2023-01-05T05:24:17.301Z,9.50
2023-01-05T05:26:43.932Z,9.40
2023-01-05T05:29:17.263Z,9.40
2023-01-05T05:31:50.250Z,9.40
2023-01-05T05:34:17.085Z,9.30
2023-01-05T05:36:50.281Z,9.30
2023-01-05T05:39:16.908Z,9.40
2023-01-05T05:41:43.578Z,9.30
2023-01-05T05:44:16.299Z,9.30
2023-01-05T05:46:49.310Z,9.30
2023-01-05T05:49:16.040Z,9.30
2023-01-05T05:51:49.232Z,9.40
2023-01-05T05:54:15.973Z,9.30
2023-01-05T05:56:49.240Z,9.30
2023-01-05T05:59:22.255Z,9.30
2023-01-05T06:01:55.295Z,9.30
2023-01-05T06:04:21.987Z,9.30
2023-01-05T06:06:55.318Z,9.30
2023-01-05T06:09:21.956Z,9.30
2023-01-05T06:11:48.742Z,9.30
2023-01-05T06:14:22.296Z,9.30
2023-01-05T06:16:48.956Z,9.30
2023-01-05T06:19:15.598Z,9.30
2023-01-05T06:21:49.252Z,9.30
2023-01-05T06:24:22.230Z,9.10
2023-01-05T06:26:55.330Z,9.10
2023-01-05T06:29:21.969Z,9.00
2023-01-05T06:31:48.673Z,9.00
2023-01-05T06:34:22.327Z,9.10
2023-01-05T06:36:48.934Z,9.10
2023-01-05T06:39:15.615Z,9.10
2023-01-05T06:41:49.282Z,9.10
2023-01-05T06:44:22.227Z,9.10
2023-01-05T06:46:55.273Z,9.00
2023-01-05T06:49:22.111Z,9.00
2023-01-05T06:51:48.760Z,9.00
2023-01-05T06:54:22.281Z,8.90
2023-01-05T06:56:48.919Z,8.90
2023-01-05T06:59:35.211Z,8.90
2023-01-05T07:02:08.355Z,8.90
2023-01-05T07:04:35.082Z,8.90
2023-01-05T07:07:01.681Z,8.80
2023-01-05T07:09:35.316Z,8.90
2023-01-05T07:12:01.913Z,9.00
2023-01-05T07:14:28.557Z,9.00
2023-01-05T07:17:02.304Z,8.90
2023-01-05T07:19:28.933Z,8.90
2023-01-05T07:22:02.295Z,8.90
2023-01-05T07:24:35.236Z,8.90
2023-01-05T07:27:10.003Z,8.90
2023-01-05T07:29:37.140Z,9.00
2023-01-05T07:32:10.326Z,9.00
2023-01-05T07:34:51.205Z,9.00
2023-01-05T07:37:28.273Z,9.00
2023-01-05T07:39:54.857Z,9.00
2023-01-05T07:42:28.241Z,9.00
2023-01-05T07:44:54.828Z,9.00
2023-01-05T07:47:27.713Z,9.00
2023-01-05T07:50:01.268Z,9.00
2023-01-05T07:52:37.264Z,9.00
2023-01-05T07:55:10.342Z,8.90
2023-01-05T07:57:37.048Z,8.90
2023-01-05T08:00:18.470Z,8.90
2023-01-05T08:02:51.669Z,8.90
2023-01-05T08:05:25.346Z,8.90
2023-01-05T08:07:51.968Z,8.90
2023-01-05T08:10:37.282Z,8.90
2023-01-05T08:13:24.014Z,8.80
2023-01-05T08:15:59.239Z,8.90
2023-01-05T08:18:26.386Z,8.90
2023-01-05T08:21:02.288Z,8.90
2023-01-05T08:23:28.882Z,9.00
2023-01-05T08:25:55.853Z,8.90
2023-01-05T08:28:35.349Z,8.90
2023-01-05T08:31:08.270Z,8.90
2023-01-05T08:33:41.304Z,8.90
2023-01-05T08:36:10.494Z,8.90
2023-01-05T08:38:44.307Z,9.00
2023-01-05T08:41:10.895Z,8.90
2023-01-05T08:43:37.501Z,8.90
2023-01-05T08:46:11.436Z,9.00
2023-01-05T08:48:48.987Z,8.90
2023-01-05T08:51:22.284Z,8.90
2023-01-05T08:53:49.555Z,8.90
2023-01-05T08:56:23.284Z,8.90
2023-01-05T08:58:57.145Z,8.90
2023-01-05T09:01:37.313Z,8.90
2023-01-05T09:04:04.132Z,8.90
2023-01-05T09:06:37.513Z,9.00
2023-01-05T09:09:04.388Z,8.90
2023-01-05T09:11:37.413Z,8.90
2023-01-05T09:14:04.058Z,8.90
2023-01-05T09:17:09.827Z,8.90
2023-01-05T09:19:26.915Z,8.90
2023-01-05T09:22:00.251Z,8.90
2023-01-05T09:24:26.925Z,8.90
2023-01-05T09:27:00.239Z,8.90
2023-01-05T09:29:33.318Z,8.90
2023-01-05T09:32:06.325Z,8.90
2023-01-05T09:34:33.134Z,8.90
2023-01-05T09:37:06.217Z,8.90
2023-01-05T09:39:32.862Z,8.90
2023-01-05T09:42:10.217Z,8.90
2023-01-05T09:44:42.898Z,8.90
2023-01-05T09:47:38.284Z,8.90
2023-01-05T09:50:25.240Z,8.90
2023-01-05T09:53:03.310Z,8.90
2023-01-05T09:55:32.179Z,8.90
2023-01-05T09:58:09.290Z,9.00
2023-01-05T10:00:47.234Z,9.00
2023-01-05T10:04:02.502Z,9.00
2023-01-05T10:06:33.227Z,9.10
2023-01-05T10:09:00.834Z,9.10
2023-01-05T10:12:09.237Z,9.10
2023-01-05T10:14:41.610Z,9.10
2023-01-05T10:20:22.273Z,9.20
2023-01-05T10:23:26.329Z,9.20
2023-01-05T10:26:16.363Z,9.20
2023-01-05T10:29:17.217Z,9.30
2023-01-05T10:31:52.379Z,9.30
2023-01-05T10:34:31.209Z,9.20
2023-01-05T10:37:20.291Z,9.20
2023-01-05T10:40:28.286Z,9.20
2023-01-05T10:43:28.213Z,9.30
2023-01-05T10:48:48.989Z,9.40
2023-01-05T10:51:22.293Z,9.50
2023-01-05T10:53:49.207Z,9.50
2023-01-05T10:56:30.284Z,9.60
2023-01-05T10:59:19.016Z,9.60
2023-01-05T11:01:59.294Z,9.60
2023-01-05T11:04:33.680Z,9.70
2023-01-05T11:07:13.210Z,9.60
2023-01-05T11:09:51.371Z,9.60
2023-01-05T11:12:28.205Z,9.70
2023-01-05T11:14:59.159Z,9.70
2023-01-05T11:17:35.304Z,9.60
2023-01-05T11:20:03.170Z,9.70
2023-01-05T11:22:41.242Z,9.70
2023-01-05T11:25:30.363Z,9.70
2023-01-05T11:28:22.196Z,9.70
2023-01-05T11:31:22.286Z,9.60
2023-01-05T11:34:03.210Z,9.60
2023-01-05T11:36:29.870Z,9.70
2023-01-05T11:39:04.218Z,9.70
2023-01-05T11:41:37.267Z,9.60
2023-01-05T11:44:12.282Z,9.60
2023-01-05T11:46:43.432Z,9.60
2023-01-05T11:49:10.555Z,9.60
2023-01-05T11:51:47.261Z,9.60
2023-01-05T11:54:34.105Z,9.60
2023-01-05T11:57:34.287Z,9.60
2023-01-05T12:00:08.618Z,9.60
2023-01-05T12:03:26.264Z,9.60
2023-01-05T12:06:06.275Z,9.60
2023-01-05T12:08:59.325Z,9.60
2023-01-05T12:11:29.959Z,9.60
2023-01-05T12:14:31.266Z,9.50
2023-01-05T12:17:09.278Z,9.50
2023-01-05T12:19:42.210Z,9.60
2023-01-05T12:22:34.289Z,9.60
2023-01-05T12:25:32.299Z,9.60
2023-01-05T12:28:45.549Z,9.60
2023-01-05T12:33:44.538Z,9.60
2023-01-05T12:35:03.308Z,9.60
2023-01-05T12:38:10.228Z,9.60
2023-01-05T12:41:02.898Z,9.60
2023-01-05T12:44:13.282Z,9.60
2023-01-05T12:46:44.593Z,9.60
2023-01-05T12:49:23.323Z,9.50
2023-01-05T12:52:10.769Z,9.50
2023-01-05T12:54:54.211Z,9.50
2023-01-05T12:57:32.769Z,9.50
2023-01-05T13:00:25.367Z,9.50
2023-01-05T13:03:05.092Z,9.40
2023-01-05T13:05:57.200Z,9.40
2023-01-05T13:08:36.313Z,9.40
2023-01-05T13:11:31.189Z,9.40
2023-01-05T13:14:19.552Z,9.40
2023-01-05T13:17:01.305Z,9.40
2023-01-05T13:19:44.491Z,9.40
2023-01-05T13:22:25.267Z,9.40
2023-01-05T13:25:00.870Z,9.40
2023-01-05T13:27:36.271Z,9.40
2023-01-05T13:30:10.253Z,9.40
2023-01-05T13:33:22.384Z,9.40
2023-01-05T13:35:54.721Z,9.40
2023-01-05T13:38:52.212Z,9.30
2023-01-05T13:41:45.874Z,9.20
2023-01-05T13:44:41.224Z,9.10
2023-01-05T13:47:45.239Z,9.00
2023-01-05T13:51:02.285Z,8.90
2023-01-05T13:53:30.610Z,8.80
2023-01-05T13:56:06.269Z,8.80
2023-01-05T13:58:44.601Z,8.70
2023-01-05T14:01:32.212Z,8.70
2023-01-05T14:04:15.679Z,8.60
2023-01-05T14:06:52.357Z,8.60
2023-01-05T14:09:42.615Z,8.50
2023-01-05T14:12:16.293Z,8.50
2023-01-05T14:15:01.935Z,8.40
2023-01-05T14:18:04.667Z,8.40
2023-01-05T14:20:41.014Z,8.40
2023-01-05T14:23:36.271Z,8.30
2023-01-05T14:26:04.272Z,8.20
2023-01-05T14:28:30.868Z,8.20
2023-01-05T14:31:17.395Z,8.10
2023-01-05T14:34:12.323Z,8.20
2023-01-05T14:36:43.255Z,8.10
2023-01-05T14:39:25.343Z,8.00
2023-01-05T14:42:06.242Z,8.00
2023-01-05T14:44:50.264Z,7.90
2023-01-05T14:47:32.316Z,7.90
2023-01-05T14:50:11.269Z,7.90
2023-01-05T14:53:01.156Z,7.80
2023-01-05T14:55:39.140Z,7.80
2023-01-05T14:58:15.266Z,7.80
2023-01-05T15:01:04.296Z,7.70
2023-01-05T15:03:39.669Z,7.70
2023-01-05T15:06:22.319Z,7.70
2023-01-05T15:09:26.282Z,7.60
2023-01-05T15:12:44.456Z,7.50
2023-01-05T15:15:44.342Z,7.50
2023-01-05T15:18:40.294Z,7.40
2023-01-05T15:21:28.657Z,7.40
2023-01-05T15:24:25.297Z,7.40
2023-01-05T15:27:20.431Z,7.40
2023-01-05T15:30:21.860Z,7.30
2023-01-05T15:32:57.448Z,7.30
2023-01-05T15:35:43.187Z,7.20
2023-01-05T15:38:36.489Z,7.20
2023-01-05T15:41:17.269Z,7.10
2023-01-05T15:43:44.310Z,7.10
2023-01-05T15:46:12.444Z,7.00
2023-01-05T15:48:52.311Z,7.00
2023-01-05T15:51:38.263Z,7.00
2023-01-05T15:54:12.201Z,6.90
2023-01-05T15:56:41.111Z,6.90
2023-01-05T15:59:35.467Z,6.90
2023-01-05T16:02:26.230Z,6.90
2023-01-05T16:05:20.260Z,6.80
2023-01-05T16:07:59.783Z,6.80
2023-01-05T16:10:38.274Z,6.80
2023-01-05T16:13:14.498Z,6.80
2023-01-05T16:15:50.263Z,6.80
2023-01-05T16:18:24.980Z,6.80
2023-01-05T16:21:00.255Z,6.80
2023-01-05T16:23:44.214Z,6.80
2023-01-05T16:26:16.626Z,6.80
2023-01-05T16:28:51.198Z,6.90
2023-01-05T16:31:35.873Z,6.90
2023-01-05T16:34:27.259Z,6.90
2023-01-05T16:37:15.226Z,6.90
2023-01-05T16:39:50.341Z,6.90
2023-01-05T16:42:40.639Z,6.90
2023-01-05T16:45:26.256Z,6.90
2023-01-05T16:47:53.381Z,6.90
2023-01-05T16:50:19.972Z,6.90
2023-01-05T16:53:17.244Z,7.00
2023-01-05T16:55:44.317Z,6.90
2023-01-05T16:58:36.391Z,6.90
2023-01-05T17:01:30.391Z,6.90
2023-01-05T17:03:57.036Z,7.00
2023-01-05T17:06:28.236Z,6.90
2023-01-05T17:09:05.246Z,6.90
2023-01-05T17:11:43.222Z,6.90
2023-01-05T17:14:11.530Z,6.90
2023-01-05T17:16:45.260Z,6.90
2023-01-05T17:19:19.917Z,6.80
2023-01-05T17:22:05.976Z,6.80
2023-01-05T17:24:35.122Z,6.80
2023-01-05T17:27:08.201Z,6.80
2023-01-05T17:29:36.184Z,6.80
2023-01-05T17:32:10.191Z,6.80
2023-01-05T17:34:38.747Z,6.70
2023-01-05T17:37:13.238Z,6.70
2023-01-05T17:39:46.218Z,6.60
2023-01-05T17:45:05.268Z,6.60
2023-01-05T17:47:38.318Z,6.60
2023-01-05T17:50:05.996Z,6.50
2023-01-05T17:52:32.677Z,6.50
2023-01-05T17:55:06.191Z,6.50
2023-01-05T17:57:32.858Z,6.40
2023-01-05T18:00:06.220Z,6.40
2023-01-05T18:02:32.950Z,6.40
2023-01-05T18:05:06.186Z,6.40
2023-01-05T18:07:34.511Z,6.40
2023-01-05T18:12:35.393Z,6.40
2023-01-05T18:15:09.248Z,6.30
2023-01-05T18:20:21.222Z,6.30
2023-01-05T18:22:48.444Z,6.30
2023-01-05T18:25:22.265Z,6.20
2023-01-05T18:27:48.928Z,6.20
2023-01-05T18:30:15.741Z,6.20
2023-01-05T18:32:49.254Z,6.10
2023-01-05T18:35:15.990Z,6.10
2023-01-05T18:37:49.186Z,6.00
2023-01-05T18:40:22.237Z,6.00
2023-01-05T18:42:48.900Z,6.00
2023-01-05T18:45:31.977Z,5.90
2023-01-05T18:47:58.959Z,5.90
2023-01-05T18:50:32.324Z,5.90
2023-01-05T18:52:58.919Z,5.90
2023-01-05T18:55:46.283Z,5.90
2023-01-05T18:58:19.277Z,5.90
2023-01-05T19:01:00.267Z,6.00
2023-01-05T19:03:34.271Z,6.00
2023-01-05T19:06:13.347Z,6.00
2023-01-05T19:08:41.825Z,6.00
2023-01-05T19:11:27.222Z,6.00
2023-01-05T19:14:00.208Z,5.90
2023-01-05T19:16:35.265Z,6.00
2023-01-05T19:19:08.237Z,5.90
2023-01-05T19:21:45.261Z,5.90
2023-01-05T19:24:21.312Z,5.80
2023-01-05T19:26:56.191Z,5.90
2023-01-05T19:29:24.247Z,5.80
2023-01-05T19:31:57.220Z,5.80
2023-01-05T19:34:23.936Z,5.80
2023-01-05T19:36:57.215Z,5.80
2023-01-05T19:39:30.258Z,5.80
2023-01-05T19:41:56.849Z,5.70
2023-01-05T19:44:23.577Z,5.70
2023-01-05T19:46:59.261Z,5.70
2023-01-05T19:49:27.583Z,5.80
2023-01-05T19:52:01.237Z,5.70
2023-01-05T19:54:35.258Z,5.70
2023-01-05T19:57:08.263Z,5.70
2023-01-05T19:59:34.900Z,5.70
2023-01-05T20:02:16.180Z,5.60
2023-01-05T20:04:45.452Z,5.60
2023-01-05T20:07:19.252Z,5.60
2023-01-05T20:09:52.288Z,5.60
2023-01-05T20:12:18.933Z,5.60
2023-01-05T20:14:52.252Z,5.60
2023-01-05T20:17:18.854Z,5.60
2023-01-05T20:19:45.481Z,5.60
2023-01-05T20:22:20.180Z,5.60
2023-01-05T20:24:46.827Z,5.60
2023-01-05T20:27:22.269Z,5.60
2023-01-05T20:29:48.996Z,5.60
2023-01-05T20:32:19.177Z,5.60
2023-01-05T20:34:58.254Z,5.60
2023-01-05T20:37:32.180Z,5.60
2023-01-05T20:40:00.829Z,5.60
2023-01-05T20:42:29.061Z,5.50
2023-01-05T20:45:02.205Z,5.60
2023-01-05T20:47:31.812Z,5.50
2023-01-05T20:50:10.339Z,5.50
2023-01-05T20:52:36.976Z,5.50
2023-01-05T20:55:03.716Z,5.40
2023-01-05T20:57:37.179Z,5.40
2023-01-05T21:00:11.183Z,5.40
2023-01-05T21:02:53.277Z,5.30
2023-01-05T21:05:33.249Z,5.30
2023-01-05T21:07:59.856Z,5.20
2023-01-05T21:10:26.491Z,5.20
2023-01-05T21:13:31.548Z,5.10
2023-01-05T21:16:03.193Z,5.10
2023-01-05T21:18:30.928Z,5.10
2023-01-05T21:21:04.206Z,5.10
2023-01-05T21:23:30.824Z,5.10
2023-01-05T21:26:06.526Z,5.10
2023-01-05T21:28:45.267Z,5.10
2023-01-05T21:31:15.077Z,5.00
2023-01-05T21:33:42.036Z,5.00
2023-01-05T21:36:24.278Z,5.00
2023-01-05T21:39:02.002Z,5.00
2023-01-05T21:41:56.196Z,5.00
2023-01-05T21:44:23.431Z,5.00
2023-01-05T21:46:57.230Z,5.00
2023-01-05T21:49:24.732Z,5.00
2023-01-05T21:52:16.251Z,5.00
2023-01-05T21:55:01.540Z,5.00
2023-01-05T21:57:35.267Z,5.00
2023-01-05T22:00:22.164Z,4.90
2023-01-05T22:02:55.226Z,5.00
2023-01-05T22:05:21.863Z,4.90
2023-01-05T22:07:55.189Z,4.80
2023-01-05T22:10:21.934Z,4.80
2023-01-05T22:12:55.839Z,4.80
2023-01-05T22:15:22.727Z,4.80
2023-01-05T22:17:49.359Z,4.70
2023-01-05T22:20:23.237Z,4.70
2023-01-05T22:22:56.159Z,4.70
2023-01-05T22:25:22.755Z,4.60
2023-01-05T22:27:56.211Z,4.70
2023-01-05T22:30:22.842Z,4.60
2023-01-05T22:32:56.331Z,4.60
2023-01-05T22:35:22.983Z,4.60
2023-01-05T22:37:52.321Z,4.60
2023-01-05T22:40:29.287Z,4.60
2023-01-05T22:42:55.979Z,4.60
2023-01-05T22:45:22.742Z,4.50
2023-01-05T22:47:56.217Z,4.50
2023-01-05T22:50:22.832Z,4.50
2023-01-05T22:52:56.244Z,4.50
2023-01-05T22:55:29.179Z,4.50
2023-01-05T22:58:02.219Z,4.40
2023-01-05T23:00:49.186Z,4.40
2023-01-05T23:03:22.198Z,4.50
2023-01-05T23:05:48.815Z,4.40
2023-01-05T23:08:22.240Z,4.40
2023-01-05T23:10:55.213Z,4.40
2023-01-05T23:13:21.851Z,4.40
2023-01-05T23:16:00.239Z,4.30
2023-01-05T23:18:34.233Z,4.30
2023-01-05T23:21:03.148Z,4.30
2023-01-05T23:23:30.142Z,4.20
2023-01-05T23:26:04.281Z,4.20
2023-01-05T23:28:31.726Z,4.20
2023-01-05T23:30:59.350Z,4.30
2023-01-05T23:33:36.250Z,4.20
2023-01-05T23:36:04.003Z,4.10
2023-01-05T23:38:38.205Z,4.10
2023-01-05T23:41:13.178Z,4.10
2023-01-05T23:43:41.462Z,4.00
2023-01-05T23:46:29.281Z,4.00
2023-01-05T23:48:55.954Z,3.90
2023-01-05T23:51:29.294Z,3.80
2023-01-05T23:53:57.229Z,3.70
2023-01-05T23:56:36.214Z,3.70
2023-01-05T23:59:06.385Z,3.60
